ETH814B HTKJ-HAAB
Flight info
| Callsign | ETH814B |
|---|---|
| Flight time | N/A |
| Altitude | 36000 |
| Route | DULMI2D UTATA UA727 NAK UM308 RUDOL RUDOL1A |
| Aircraft | B38M/M-SDE1FGHILORVWXY/HB1 |
Departure
| Time | 2026-05-06 16:52 |
|---|---|
| Airport | Kilimanjaro International Airport (HTKJ) |
Arrival
| Time | N/A |
|---|---|
| Airport | Addis Ababa Bole International Airport (HAAB) |
| Time | Latitude | Longitude | Altitude | Speed | Heading |
|---|---|---|---|---|---|
| 2026-05-06 16:32 | -3.42580 | 37.06657 | 2931 ft | 0 kts | 88° |
| 2026-05-06 16:41 | -3.42580 | 37.06651 | 2929 ft | 4 kts | 87° |
| 2026-05-06 16:41 | -3.42581 | 37.06624 | 2929 ft | 3 kts | 87° |
| 2026-05-06 16:41 | -3.42579 | 37.06602 | 2929 ft | 4 kts | 122° |
| 2026-05-06 16:42 | -3.42560 | 37.06591 | 2930 ft | 4 kts | 174° |
| 2026-05-06 16:42 | -3.42546 | 37.06590 | 2930 ft | 1 kts | 178° |
| 2026-05-06 16:42 | -3.42545 | 37.06590 | 2930 ft | 0 kts | 178° |
| 2026-05-06 16:49 | -3.42568 | 37.06591 | 2928 ft | 8 kts | 177° |
| 2026-05-06 16:49 | -3.42660 | 37.06594 | 2939 ft | 17 kts | 178° |
| 2026-05-06 16:50 | -3.42729 | 37.06533 | 2937 ft | 16 kts | 266° |
| 2026-05-06 16:50 | -3.42734 | 37.06422 | 2939 ft | 17 kts | 267° |
| 2026-05-06 16:50 | -3.42738 | 37.06301 | 2939 ft | 18 kts | 267° |
| 2026-05-06 16:50 | -3.42743 | 37.06171 | 2936 ft | 19 kts | 268° |
| 2026-05-06 16:51 | -3.42747 | 37.06033 | 2939 ft | 20 kts | 268° |
| 2026-05-06 16:51 | -3.42759 | 37.05889 | 2936 ft | 20 kts | 252° |
| 2026-05-06 16:51 | -3.42874 | 37.05844 | 2934 ft | 19 kts | 177° |
| 2026-05-06 16:51 | -3.43002 | 37.05869 | 2932 ft | 16 kts | 120° |
| 2026-05-06 16:52 | -3.43006 | 37.06009 | 2938 ft | 38 kts | 88° |
| 2026-05-06 16:52 | -3.42980 | 37.06551 | 2941 ft | 116 kts | 87° |
| 2026-05-06 16:52 | -3.42929 | 37.07578 | 3027 ft | 167 kts | 86° |
| 2026-05-06 16:52 | -3.42892 | 37.08762 | 3773 ft | 178 kts | 87° |
| 2026-05-06 16:53 | -3.42840 | 37.10015 | 4642 ft | 181 kts | 88° |
| 2026-05-06 16:53 | -3.42523 | 37.11287 | 5171 ft | 205 kts | 58° |
| 2026-05-06 16:53 | -3.41300 | 37.12176 | 5531 ft | 239 kts | 15° |
| 2026-05-06 16:53 | -3.39689 | 37.12022 | 6545 ft | 237 kts | 335° |
| 2026-05-06 16:54 | -3.38419 | 37.10946 | 7308 ft | 246 kts | 308° |
| 2026-05-06 16:54 | -3.37258 | 37.09676 | 8202 ft | 247 kts | 317° |
| 2026-05-06 16:54 | -3.35977 | 37.08527 | 9170 ft | 248 kts | 319° |
| 2026-05-06 16:54 | -3.34650 | 37.07405 | 10083 ft | 250 kts | 320° |
| 2026-05-06 16:55 | -3.33302 | 37.06312 | 10979 ft | 249 kts | 321° |
| 2026-05-06 16:55 | -3.31939 | 37.05232 | 11818 ft | 251 kts | 322° |
| 2026-05-06 16:55 | -3.30555 | 37.04151 | 12626 ft | 253 kts | 322° |
| 2026-05-06 16:55 | -3.29153 | 37.03063 | 13431 ft | 256 kts | 323° |
| 2026-05-06 16:56 | -3.27734 | 37.01969 | 14194 ft | 259 kts | 323° |
| 2026-05-06 16:56 | -3.26297 | 37.00866 | 14875 ft | 263 kts | 323° |
| 2026-05-06 16:56 | -3.24838 | 36.99747 | 15540 ft | 266 kts | 323° |
| 2026-05-06 16:56 | -3.23360 | 36.98615 | 16204 ft | 269 kts | 324° |
| 2026-05-06 16:57 | -3.21867 | 36.97473 | 16880 ft | 272 kts | 324° |
| 2026-05-06 16:57 | -3.20355 | 36.96314 | 17502 ft | 276 kts | 323° |
| 2026-05-06 16:57 | -3.18819 | 36.95137 | 18118 ft | 280 kts | 324° |
| 2026-05-06 16:57 | -3.17264 | 36.93947 | 18702 ft | 284 kts | 324° |
| 2026-05-06 16:58 | -3.15689 | 36.92742 | 19243 ft | 287 kts | 324° |
| 2026-05-06 16:58 | -3.14067 | 36.91555 | 19677 ft | 294 kts | 332° |
| 2026-05-06 16:58 | -3.12098 | 36.90895 | 19845 ft | 307 kts | 357° |
| 2026-05-06 16:58 | -3.09935 | 36.91099 | 20012 ft | 322 kts | 17° |
| 2026-05-06 16:59 | -3.07740 | 36.91790 | 20163 ft | 339 kts | 17° |
| 2026-05-06 16:59 | -3.05425 | 36.92506 | 20257 ft | 358 kts | 18° |
| 2026-05-06 16:59 | -3.03003 | 36.93267 | 20457 ft | 371 kts | 18° |
| 2026-05-06 16:59 | -3.00519 | 36.94055 | 20866 ft | 376 kts | 18° |
| 2026-05-06 17:00 | -2.98026 | 36.94849 | 21396 ft | 377 kts | 19° |
| 2026-05-06 17:00 | -2.95514 | 36.95651 | 21851 ft | 381 kts | 19° |
| 2026-05-06 17:00 | -2.92981 | 36.96460 | 22339 ft | 383 kts | 19° |
| 2026-05-06 17:00 | -2.90428 | 36.97275 | 22794 ft | 387 kts | 19° |
| 2026-05-06 17:01 | -2.87854 | 36.98098 | 23262 ft | 389 kts | 19° |
| 2026-05-06 17:01 | -2.85264 | 36.98925 | 23703 ft | 393 kts | 19° |
| 2026-05-06 17:01 | -2.82649 | 36.99759 | 24073 ft | 395 kts | 19° |
| 2026-05-06 17:01 | -2.80028 | 37.00596 | 24459 ft | 397 kts | 19° |
| 2026-05-06 17:02 | -2.77387 | 37.01439 | 24828 ft | 400 kts | 19° |
| 2026-05-06 17:02 | -2.74768 | 37.02275 | 25187 ft | 402 kts | 18° |
| 2026-05-06 17:02 | -2.72096 | 37.03129 | 25561 ft | 404 kts | 18° |
| 2026-05-06 17:02 | -2.69389 | 37.03914 | 25920 ft | 407 kts | 11° |
| 2026-05-06 17:03 | -2.66555 | 37.04030 | 26298 ft | 410 kts | 357° |
| 2026-05-06 17:03 | -2.63696 | 37.03885 | 26619 ft | 413 kts | 358° |
| 2026-05-06 17:03 | -2.60821 | 37.03733 | 26985 ft | 415 kts | 358° |
| 2026-05-06 17:03 | -2.57928 | 37.03564 | 27341 ft | 417 kts | 357° |
| 2026-05-06 17:04 | -2.55024 | 37.03385 | 27695 ft | 420 kts | 357° |
| 2026-05-06 17:04 | -2.52101 | 37.03199 | 28060 ft | 421 kts | 357° |
| 2026-05-06 17:04 | -2.49167 | 37.03013 | 28373 ft | 424 kts | 357° |
| 2026-05-06 17:04 | -2.46213 | 37.02825 | 28742 ft | 426 kts | 357° |
| 2026-05-06 17:05 | -2.43252 | 37.02636 | 29085 ft | 428 kts | 357° |
| 2026-05-06 17:05 | -2.40267 | 37.02446 | 29419 ft | 430 kts | 356° |
| 2026-05-06 17:05 | -2.37281 | 37.02256 | 29813 ft | 430 kts | 356° |
| 2026-05-06 17:05 | -2.34286 | 37.02065 | 30085 ft | 433 kts | 356° |
| 2026-05-06 17:06 | -2.31266 | 37.01872 | 30359 ft | 435 kts | 357° |
| 2026-05-06 17:06 | -2.28241 | 37.01679 | 30654 ft | 437 kts | 357° |
| 2026-05-06 17:06 | -2.25194 | 37.01485 | 30853 ft | 440 kts | 357° |
| 2026-05-06 17:06 | -2.22134 | 37.01291 | 31145 ft | 441 kts | 356° |
| 2026-05-06 17:07 | -2.19073 | 37.01094 | 31413 ft | 443 kts | 356° |
| 2026-05-06 17:07 | -2.15984 | 37.00898 | 31610 ft | 446 kts | 357° |
| 2026-05-06 17:07 | -2.12891 | 37.00701 | 31929 ft | 446 kts | 357° |
| 2026-05-06 17:07 | -2.09784 | 37.00503 | 32116 ft | 450 kts | 357° |
| 2026-05-06 17:08 | -2.06655 | 37.00304 | 32379 ft | 451 kts | 356° |
| 2026-05-06 17:08 | -2.03523 | 37.00104 | 32648 ft | 452 kts | 356° |
| 2026-05-06 17:08 | -2.00366 | 36.99903 | 32817 ft | 456 kts | 356° |
| 2026-05-06 17:08 | -1.97203 | 36.99702 | 33118 ft | 456 kts | 356° |
| 2026-05-06 17:09 | -1.94033 | 36.99500 | 33329 ft | 459 kts | 356° |
| 2026-05-06 17:09 | -1.90833 | 36.99296 | 33540 ft | 461 kts | 356° |
| 2026-05-06 17:09 | -1.87633 | 36.99092 | 33810 ft | 462 kts | 356° |
| 2026-05-06 17:09 | -1.84421 | 36.98887 | 34068 ft | 463 kts | 356° |
| 2026-05-06 17:10 | -1.81208 | 36.98683 | 34358 ft | 462 kts | 356° |
| 2026-05-06 17:10 | -1.77999 | 36.98478 | 34602 ft | 463 kts | 356° |
| 2026-05-06 17:10 | -1.74790 | 36.98274 | 34861 ft | 462 kts | 356° |
| 2026-05-06 17:10 | -1.71584 | 36.98070 | 35150 ft | 461 kts | 356° |
| 2026-05-06 17:11 | -1.68380 | 36.97866 | 35390 ft | 462 kts | 356° |
| 2026-05-06 17:11 | -1.65179 | 36.97662 | 35677 ft | 461 kts | 356° |
| 2026-05-06 17:11 | -1.61980 | 36.97458 | 35935 ft | 461 kts | 356° |
| 2026-05-06 17:11 | -1.58818 | 36.97257 | 36132 ft | 461 kts | 356° |
| 2026-05-06 17:12 | -1.55619 | 36.97053 | 36163 ft | 460 kts | 356° |
| 2026-05-06 17:12 | -1.49252 | 36.96648 | 36159 ft | 458 kts | 356° |
| 2026-05-06 17:13 | -1.42888 | 36.96243 | 36159 ft | 459 kts | 356° |
| 2026-05-06 17:13 | -1.36522 | 36.95838 | 36155 ft | 458 kts | 356° |
| 2026-05-06 17:14 | -1.30271 | 36.94854 | 36135 ft | 455 kts | 335° |
| 2026-05-06 17:14 | -1.27573 | 36.93224 | 36173 ft | 455 kts | 322° |
| 2026-05-06 17:14 | -1.25039 | 36.91305 | 36157 ft | 458 kts | 322° |
| 2026-05-06 17:15 | -1.20022 | 36.87392 | 36163 ft | 457 kts | 321° |
| 2026-05-06 17:15 | -1.15056 | 36.83427 | 36163 ft | 457 kts | 321° |
| 2026-05-06 17:16 | -1.10095 | 36.79445 | 36163 ft | 458 kts | 321° |
| 2026-05-06 17:16 | -1.05130 | 36.75458 | 36159 ft | 457 kts | 321° |
| 2026-05-06 17:17 | -1.00176 | 36.71480 | 36163 ft | 456 kts | 321° |
| 2026-05-06 17:17 | -0.95224 | 36.67504 | 36170 ft | 457 kts | 321° |
| 2026-05-06 17:18 | -0.90267 | 36.63525 | 36164 ft | 458 kts | 321° |
| 2026-05-06 17:18 | -0.85302 | 36.59539 | 36171 ft | 458 kts | 321° |
| 2026-05-06 17:19 | -0.80345 | 36.55559 | 36165 ft | 457 kts | 321° |
| 2026-05-06 17:19 | -0.75377 | 36.51571 | 36149 ft | 458 kts | 321° |
| 2026-05-06 17:20 | -0.70412 | 36.47586 | 36163 ft | 457 kts | 321° |
| 2026-05-06 17:20 | -0.65492 | 36.43635 | 36152 ft | 456 kts | 321° |
| 2026-05-06 17:21 | -0.60546 | 36.39666 | 36144 ft | 457 kts | 321° |
| 2026-05-06 17:21 | -0.55579 | 36.35679 | 36147 ft | 458 kts | 321° |
| 2026-05-06 17:22 | -0.50610 | 36.31690 | 36128 ft | 458 kts | 321° |
| 2026-05-06 17:22 | -0.46450 | 36.28352 | 36132 ft | 457 kts | 321° |
| 2026-05-06 17:23 | -0.41491 | 36.24372 | 36123 ft | 458 kts | 321° |
| 2026-05-06 17:23 | -0.36530 | 36.20390 | 36105 ft | 458 kts | 321° |
| 2026-05-06 17:24 | -0.31023 | 36.17384 | 36091 ft | 453 kts | 349° |
| 2026-05-06 17:24 | -0.27928 | 36.17110 | 36113 ft | 455 kts | 3° |
| 2026-05-06 17:24 | -0.24799 | 36.17567 | 36129 ft | 456 kts | 11° |
| 2026-05-06 17:25 | -0.18606 | 36.19067 | 36088 ft | 458 kts | 15° |
| 2026-05-06 17:25 | -0.12471 | 36.20779 | 36089 ft | 458 kts | 15° |
| 2026-05-06 17:26 | -0.06347 | 36.22549 | 36097 ft | 458 kts | 15° |
| 2026-05-06 17:26 | -0.00228 | 36.24329 | 36081 ft | 458 kts | 16° |
| 2026-05-06 17:27 | 0.05886 | 36.26109 | 36090 ft | 457 kts | 16° |
| 2026-05-06 17:27 | 0.11983 | 36.27883 | 36089 ft | 456 kts | 16° |
| 2026-05-06 17:28 | 0.18079 | 36.29657 | 36070 ft | 456 kts | 15° |
| 2026-05-06 17:28 | 0.24181 | 36.31433 | 36075 ft | 456 kts | 16° |
| 2026-05-06 17:29 | 0.30280 | 36.33208 | 36046 ft | 456 kts | 15° |
| 2026-05-06 17:29 | 0.36364 | 36.34978 | 36049 ft | 454 kts | 16° |
| 2026-05-06 17:30 | 0.42430 | 36.36744 | 36047 ft | 454 kts | 16° |
| 2026-05-06 17:30 | 0.48498 | 36.38510 | 36047 ft | 454 kts | 15° |
| 2026-05-06 17:31 | 0.54564 | 36.40275 | 36039 ft | 455 kts | 15° |
| 2026-05-06 17:31 | 0.60673 | 36.42054 | 36036 ft | 458 kts | 16° |
| 2026-05-06 17:32 | 0.66795 | 36.43835 | 36014 ft | 458 kts | 16° |
| 2026-05-06 17:32 | 0.72917 | 36.45617 | 36032 ft | 458 kts | 16° |
| 2026-05-06 17:33 | 0.79037 | 36.47399 | 36010 ft | 458 kts | 16° |
| 2026-05-06 17:33 | 0.85160 | 36.49181 | 36012 ft | 458 kts | 16° |
| 2026-05-06 17:34 | 0.91280 | 36.50962 | 35998 ft | 459 kts | 15° |
| 2026-05-06 17:34 | 0.97410 | 36.52747 | 35991 ft | 459 kts | 16° |
| 2026-05-06 17:35 | 1.03499 | 36.54537 | 35974 ft | 459 kts | 16° |
| 2026-05-06 17:35 | 1.09623 | 36.56339 | 35993 ft | 459 kts | 16° |
| 2026-05-06 17:36 | 1.18819 | 36.59044 | 35977 ft | 459 kts | 16° |
| 2026-05-06 17:36 | 1.24946 | 36.60847 | 35959 ft | 459 kts | 16° |
| 2026-05-06 17:37 | 1.31070 | 36.62649 | 35959 ft | 459 kts | 16° |
| 2026-05-06 17:37 | 1.37202 | 36.64453 | 35939 ft | 459 kts | 16° |
| 2026-05-06 17:38 | 1.43327 | 36.66255 | 35958 ft | 459 kts | 16° |
| 2026-05-06 17:38 | 1.49455 | 36.68059 | 35939 ft | 459 kts | 16° |
| 2026-05-06 17:39 | 1.55578 | 36.69861 | 35941 ft | 459 kts | 16° |
| 2026-05-06 17:39 | 1.61699 | 36.71663 | 35920 ft | 459 kts | 16° |
| 2026-05-06 17:40 | 1.67819 | 36.73465 | 35929 ft | 459 kts | 16° |
| 2026-05-06 17:40 | 1.73937 | 36.75265 | 35931 ft | 458 kts | 17° |
| 2026-05-06 17:41 | 1.80059 | 36.77067 | 35936 ft | 459 kts | 17° |
| 2026-05-06 17:41 | 1.86188 | 36.78871 | 35927 ft | 459 kts | 17° |
| 2026-05-06 17:42 | 1.92308 | 36.80673 | 35925 ft | 458 kts | 17° |
| 2026-05-06 17:42 | 1.98424 | 36.82474 | 35917 ft | 458 kts | 17° |
| 2026-05-06 17:43 | 2.04544 | 36.84277 | 35913 ft | 459 kts | 17° |
| 2026-05-06 17:43 | 2.10663 | 36.86079 | 35916 ft | 458 kts | 17° |
| 2026-05-06 17:44 | 2.16780 | 36.87880 | 35914 ft | 459 kts | 17° |
| 2026-05-06 17:44 | 2.22915 | 36.89687 | 35897 ft | 460 kts | 17° |
| 2026-05-06 17:45 | 2.29044 | 36.91492 | 35903 ft | 459 kts | 17° |
| 2026-05-06 17:45 | 2.35173 | 36.93298 | 35885 ft | 459 kts | 17° |
| 2026-05-06 17:46 | 2.41267 | 36.95094 | 35893 ft | 459 kts | 17° |
| 2026-05-06 17:46 | 2.47398 | 36.96900 | 35884 ft | 460 kts | 16° |
| 2026-05-06 17:47 | 2.53537 | 36.98709 | 35890 ft | 460 kts | 16° |
| 2026-05-06 17:47 | 2.59681 | 37.00520 | 35882 ft | 460 kts | 17° |
| 2026-05-06 17:48 | 2.65815 | 37.02328 | 35881 ft | 459 kts | 17° |
| 2026-05-06 17:48 | 2.71949 | 37.04136 | 35876 ft | 459 kts | 17° |
| 2026-05-06 17:49 | 2.78081 | 37.05944 | 35884 ft | 459 kts | 17° |
| 2026-05-06 17:49 | 2.84219 | 37.07754 | 35876 ft | 460 kts | 17° |
| 2026-05-06 17:50 | 2.90355 | 37.09563 | 35874 ft | 459 kts | 17° |
| 2026-05-06 17:50 | 2.96488 | 37.11371 | 35867 ft | 460 kts | 17° |
| 2026-05-06 17:51 | 3.02627 | 37.13182 | 35871 ft | 460 kts | 17° |
| 2026-05-06 17:51 | 3.08766 | 37.14993 | 35864 ft | 461 kts | 16° |
| 2026-05-06 17:52 | 3.14921 | 37.16808 | 35867 ft | 461 kts | 16° |
| 2026-05-06 17:52 | 3.21076 | 37.18625 | 35848 ft | 462 kts | 16° |
| 2026-05-06 17:53 | 3.27235 | 37.20442 | 35855 ft | 461 kts | 16° |
| 2026-05-06 17:53 | 3.33385 | 37.22257 | 35851 ft | 461 kts | 16° |
| 2026-05-06 17:54 | 3.39543 | 37.24074 | 35858 ft | 461 kts | 16° |
| 2026-05-06 17:54 | 3.45655 | 37.25879 | 35856 ft | 461 kts | 15° |
| 2026-05-06 17:55 | 3.51805 | 37.27694 | 35859 ft | 461 kts | 15° |
| 2026-05-06 17:55 | 3.57959 | 37.29512 | 35858 ft | 461 kts | 16° |
| 2026-05-06 17:56 | 3.64110 | 37.31328 | 35861 ft | 461 kts | 16° |
| 2026-05-06 17:56 | 3.70264 | 37.33145 | 35865 ft | 461 kts | 15° |
| 2026-05-06 17:57 | 3.76411 | 37.34961 | 35874 ft | 461 kts | 16° |
| 2026-05-06 17:57 | 3.82568 | 37.36779 | 35870 ft | 461 kts | 16° |
| 2026-05-06 17:58 | 3.88716 | 37.38597 | 35879 ft | 460 kts | 15° |
| 2026-05-06 17:58 | 3.94864 | 37.40413 | 35883 ft | 460 kts | 15° |
| 2026-05-06 17:59 | 4.01044 | 37.42092 | 35889 ft | 460 kts | 12° |
| 2026-05-06 17:59 | 4.07308 | 37.43408 | 35895 ft | 460 kts | 11° |
| 2026-05-06 18:00 | 4.13574 | 37.44702 | 35907 ft | 460 kts | 11° |
| 2026-05-06 18:00 | 4.19839 | 37.45995 | 35911 ft | 460 kts | 11° |
| 2026-05-06 18:01 | 4.26105 | 37.47287 | 35908 ft | 460 kts | 11° |
| 2026-05-06 18:01 | 4.32377 | 37.48583 | 35914 ft | 461 kts | 11° |
| 2026-05-06 18:02 | 4.38662 | 37.49880 | 35916 ft | 461 kts | 11° |
| 2026-05-06 18:02 | 4.44950 | 37.51178 | 35920 ft | 461 kts | 11° |
| 2026-05-06 18:03 | 4.51240 | 37.52477 | 35924 ft | 461 kts | 11° |
| 2026-05-06 18:03 | 4.57480 | 37.53765 | 35925 ft | 460 kts | 11° |
| 2026-05-06 18:04 | 4.63755 | 37.55061 | 35932 ft | 461 kts | 11° |
| 2026-05-06 18:04 | 4.70038 | 37.56360 | 35936 ft | 461 kts | 11° |
| 2026-05-06 18:05 | 4.76312 | 37.57657 | 35935 ft | 460 kts | 11° |
| 2026-05-06 18:05 | 4.82586 | 37.58953 | 35933 ft | 461 kts | 11° |
| 2026-05-06 18:06 | 4.88877 | 37.60253 | 35926 ft | 462 kts | 11° |
| 2026-05-06 18:06 | 4.95178 | 37.61557 | 35924 ft | 462 kts | 11° |
| 2026-05-06 18:07 | 5.01476 | 37.62859 | 35931 ft | 462 kts | 11° |
| 2026-05-06 18:07 | 5.07781 | 37.64163 | 35925 ft | 462 kts | 11° |
| 2026-05-06 18:08 | 5.14084 | 37.65467 | 35936 ft | 463 kts | 11° |
| 2026-05-06 18:08 | 5.19330 | 37.66553 | 35937 ft | 463 kts | 11° |
| 2026-05-06 18:09 | 5.25640 | 37.67858 | 35935 ft | 463 kts | 11° |
| 2026-05-06 18:09 | 5.31954 | 37.69165 | 35938 ft | 463 kts | 11° |
| 2026-05-06 18:10 | 5.39292 | 37.70685 | 35936 ft | 463 kts | 11° |
| 2026-05-06 18:10 | 5.44580 | 37.71781 | 35956 ft | 463 kts | 11° |
| 2026-05-06 18:11 | 5.50888 | 37.73086 | 35946 ft | 463 kts | 10° |
| 2026-05-06 18:11 | 5.57146 | 37.74383 | 35955 ft | 462 kts | 11° |
| 2026-05-06 18:12 | 5.63448 | 37.75689 | 35955 ft | 462 kts | 11° |
| 2026-05-06 18:12 | 5.69751 | 37.76995 | 35957 ft | 462 kts | 10° |
| 2026-05-06 18:13 | 5.76055 | 37.78303 | 35947 ft | 462 kts | 10° |
| 2026-05-06 18:13 | 5.82352 | 37.79609 | 35952 ft | 462 kts | 11° |
| 2026-05-06 18:14 | 5.88653 | 37.80916 | 35957 ft | 463 kts | 11° |
| 2026-05-06 18:14 | 5.94953 | 37.82223 | 35954 ft | 463 kts | 11° |
| 2026-05-06 18:15 | 6.01258 | 37.83531 | 35956 ft | 462 kts | 11° |
| 2026-05-06 18:15 | 6.07551 | 37.84837 | 35954 ft | 461 kts | 11° |
| 2026-05-06 18:16 | 6.13840 | 37.86142 | 35954 ft | 462 kts | 11° |
| 2026-05-06 18:16 | 6.20131 | 37.87448 | 35957 ft | 462 kts | 11° |
| 2026-05-06 18:17 | 6.26423 | 37.88756 | 35961 ft | 461 kts | 11° |
| 2026-05-06 18:17 | 6.32715 | 37.90063 | 35956 ft | 463 kts | 10° |
| 2026-05-06 18:18 | 6.39040 | 37.91378 | 35976 ft | 465 kts | 11° |
| 2026-05-06 18:18 | 6.45376 | 37.92695 | 35967 ft | 465 kts | 11° |
| 2026-05-06 18:19 | 6.51708 | 37.94011 | 35977 ft | 465 kts | 11° |
| 2026-05-06 18:19 | 6.58045 | 37.95329 | 35976 ft | 465 kts | 10° |
| 2026-05-06 18:20 | 6.64331 | 37.96637 | 35985 ft | 465 kts | 11° |
| 2026-05-06 18:20 | 6.70669 | 37.97956 | 35985 ft | 465 kts | 11° |
| 2026-05-06 18:21 | 6.77007 | 37.99275 | 36003 ft | 465 kts | 11° |
| 2026-05-06 18:21 | 6.83344 | 38.00594 | 36019 ft | 465 kts | 11° |
| 2026-05-06 18:22 | 6.89681 | 38.01914 | 36026 ft | 465 kts | 11° |
| 2026-05-06 18:22 | 6.96029 | 38.03236 | 36046 ft | 466 kts | 11° |
| 2026-05-06 18:23 | 7.02385 | 38.04560 | 36045 ft | 466 kts | 11° |
| 2026-05-06 18:23 | 7.08735 | 38.05884 | 36062 ft | 466 kts | 11° |
| 2026-05-06 18:24 | 7.15089 | 38.07209 | 36064 ft | 466 kts | 11° |
| 2026-05-06 18:24 | 7.21444 | 38.08534 | 36072 ft | 466 kts | 11° |
| 2026-05-06 18:25 | 7.27801 | 38.09860 | 36078 ft | 467 kts | 11° |
| 2026-05-06 18:25 | 7.34158 | 38.11186 | 36093 ft | 467 kts | 11° |
| 2026-05-06 18:26 | 7.40516 | 38.12513 | 36094 ft | 467 kts | 11° |
| 2026-05-06 18:26 | 7.46877 | 38.13841 | 36113 ft | 467 kts | 11° |
| 2026-05-06 18:27 | 7.53233 | 38.15169 | 36116 ft | 466 kts | 11° |
| 2026-05-06 18:27 | 7.59591 | 38.16497 | 36110 ft | 467 kts | 11° |
| 2026-05-06 18:28 | 7.65928 | 38.17822 | 35859 ft | 460 kts | 11° |
| 2026-05-06 18:28 | 7.69066 | 38.18477 | 35067 ft | 463 kts | 11° |
| 2026-05-06 18:28 | 7.72260 | 38.19145 | 34054 ft | 472 kts | 11° |
| 2026-05-06 18:29 | 7.75492 | 38.19821 | 33116 ft | 477 kts | 11° |
| 2026-05-06 18:29 | 7.78742 | 38.20501 | 32359 ft | 477 kts | 12° |
| 2026-05-06 18:29 | 7.81982 | 38.21179 | 31636 ft | 475 kts | 12° |
| 2026-05-06 18:29 | 7.85226 | 38.21856 | 30820 ft | 476 kts | 12° |
| 2026-05-06 18:30 | 7.88481 | 38.22538 | 29877 ft | 480 kts | 12° |
| 2026-05-06 18:30 | 7.91717 | 38.23215 | 28817 ft | 483 kts | 12° |